Search for airport 
image banner adimage banner adimage banner ad
image banner ad

P15 - Brokenstraw

Located in Pittsfield, United States

ICAO - P15, IATA -

Data provided by Airmate  

General information

Coordinates: N41°49'59" W79°21'38"
Elevation is 1230 feet MSL.
Magnetic variation is -09° East
View others Airports in Pennsylvania

Operational data

Special qualification required
Current time UTC:
Current local time:
Weather at : KJHW - Chautauqua County/Jamestown ( 37 km )
METAR: KJHW 091656Z AUTO 20011KT 160V230 10SM -RA BKN033 BKN042 OVC049 05/00 A2996 RMK AO2 RAB45 SLP162 P0000 T00500000
TAF: KJHW 091501Z 0915/1012 18009KT P6SM BKN025 FM091700 14006KT 5SM -RA BR OVC012 FM092100 07010KT 2SM RA BR OVC003 FM100400 36008KT P6SM OVC003
View NOTAMs / SUP AIP / TFR affecting this airport [VIEW]
Communications frequencies: [VIEW]

Runways:

RWY identifierQFULength (ft)Width (ft)SurfaceLDA (ft)
0973°3650100GRASS
27253°3650100GRASS

Airport contact information

Address: Pittsfield United States

Satellite view of P15